sensor_id;sensor_type;location;lat;lon;timestamp;temperature;humidity
63802;DHT22;49949;43.060;25.624;2023-10-13T00:00:30;8.70;99.90
63802;DHT22;49949;43.060;25.624;2023-10-13T00:02:58;8.70;99.90
63802;DHT22;49949;43.060;25.624;2023-10-13T00:05:28;8.70;99.90
63802;DHT22;49949;43.060;25.624;2023-10-13T00:07:56;8.70;99.90
63802;DHT22;49949;43.060;25.624;2023-10-13T00:10:22;8.70;99.90
63802;DHT22;49949;43.060;25.624;2023-10-13T00:12:48;8.60;99.90
63802;DHT22;49949;43.060;25.624;2023-10-13T00:15:17;8.60;99.90
63802;DHT22;49949;43.060;25.624;2023-10-13T00:17:43;8.60;99.90
63802;DHT22;49949;43.060;25.624;2023-10-13T00:20:09;8.50;99.90
63802;DHT22;49949;43.060;25.624;2023-10-13T00:22:59;8.50;99.90
63802;DHT22;49949;43.060;25.624;2023-10-13T00:25:25;8.50;99.90
63802;DHT22;49949;43.060;25.624;2023-10-13T00:27:57;8.40;99.90
63802;DHT22;49949;43.060;25.624;2023-10-13T00:30:23;8.50;99.90
63802;DHT22;49949;43.060;25.624;2023-10-13T00:32:59;8.40;99.90
63802;DHT22;49949;43.060;25.624;2023-10-13T00:35:27;8.40;99.90
63802;DHT22;49949;43.060;25.624;2023-10-13T00:38:03;8.40;99.90
63802;DHT22;49949;43.060;25.624;2023-10-13T00:40:31;8.40;99.90
63802;DHT22;49949;43.060;25.624;2023-10-13T00:43:01;8.30;99.90
63802;DHT22;49949;43.060;25.624;2023-10-13T00:45:53;8.30;99.90
63802;DHT22;49949;43.060;25.624;2023-10-13T00:48:45;8.30;99.90
63802;DHT22;49949;43.060;25.624;2023-10-13T00:51:17;8.20;99.90
63802;DHT22;49949;43.060;25.624;2023-10-13T00:54:04;8.20;99.90
63802;DHT22;49949;43.060;25.624;2023-10-13T00:56:38;8.20;99.90
63802;DHT22;49949;43.060;25.624;2023-10-13T00:59:08;8.20;99.90
63802;DHT22;49949;43.060;25.624;2023-10-13T01:01:35;8.20;99.90
63802;DHT22;49949;43.060;25.624;2023-10-13T01:04:02;8.20;99.90
63802;DHT22;49949;43.060;25.624;2023-10-13T01:06:30;8.20;99.90
63802;DHT22;49949;43.060;25.624;2023-10-13T01:09:04;8.20;99.90
63802;DHT22;49949;43.060;25.624;2023-10-13T01:11:43;8.20;99.90
63802;DHT22;49949;43.060;25.624;2023-10-13T01:14:13;8.20;99.90
63802;DHT22;49949;43.060;25.624;2023-10-13T01:16:44;8.10;99.90
63802;DHT22;49949;43.060;25.624;2023-10-13T01:19:14;8.10;99.90
63802;DHT22;49949;43.060;25.624;2023-10-13T01:21:43;8.10;99.90
63802;DHT22;49949;43.060;25.624;2023-10-13T01:24:10;8.10;99.90
63802;DHT22;49949;43.060;25.624;2023-10-13T01:26:40;8.00;99.90
63802;DHT22;49949;43.060;25.624;2023-10-13T01:29:08;8.00;99.90
63802;DHT22;49949;43.060;25.624;2023-10-13T01:31:44;8.00;99.90
63802;DHT22;49949;43.060;25.624;2023-10-13T01:34:15;8.00;99.90
63802;DHT22;49949;43.060;25.624;2023-10-13T01:36:51;7.90;99.90
63802;DHT22;49949;43.060;25.624;2023-10-13T01:39:21;7.90;99.90
63802;DHT22;49949;43.060;25.624;2023-10-13T01:41:47;7.90;99.90
63802;DHT22;49949;43.060;25.624;2023-10-13T01:46:49;7.90;99.90
63802;DHT22;49949;43.060;25.624;2023-10-13T01:49:14;7.90;99.90
63802;DHT22;49949;43.060;25.624;2023-10-13T01:51:43;8.00;99.90
63802;DHT22;49949;43.060;25.624;2023-10-13T01:54:13;7.90;99.90
63802;DHT22;49949;43.060;25.624;2023-10-13T01:56:39;7.80;99.90
63802;DHT22;49949;43.060;25.624;2023-10-13T01:59:11;7.80;99.90
63802;DHT22;49949;43.060;25.624;2023-10-13T02:01:37;7.80;99.90
63802;DHT22;49949;43.060;25.624;2023-10-13T02:04:03;7.80;99.90
63802;DHT22;49949;43.060;25.624;2023-10-13T02:06:34;7.80;99.90
63802;DHT22;49949;43.060;25.624;2023-10-13T02:09:06;7.80;99.90
63802;DHT22;49949;43.060;25.624;2023-10-13T02:11:44;7.80;99.90
63802;DHT22;49949;43.060;25.624;2023-10-13T02:14:20;7.70;99.90
63802;DHT22;49949;43.060;25.624;2023-10-13T02:16:48;7.70;99.90
63802;DHT22;49949;43.060;25.624;2023-10-13T02:19:16;7.70;99.90
63802;DHT22;49949;43.060;25.624;2023-10-13T02:21:44;7.70;99.90
63802;DHT22;49949;43.060;25.624;2023-10-13T02:24:11;7.70;99.90
63802;DHT22;49949;43.060;25.624;2023-10-13T02:26:44;7.70;99.90
63802;DHT22;49949;43.060;25.624;2023-10-13T02:29:10;7.70;99.90
63802;DHT22;49949;43.060;25.624;2023-10-13T02:31:40;7.70;99.90
63802;DHT22;49949;43.060;25.624;2023-10-13T02:34:06;7.60;99.90
63802;DHT22;49949;43.060;25.624;2023-10-13T02:36:35;7.60;99.90
63802;DHT22;49949;43.060;25.624;2023-10-13T02:39:05;7.60;99.90
63802;DHT22;49949;43.060;25.624;2023-10-13T02:41:34;7.60;99.90
63802;DHT22;49949;43.060;25.624;2023-10-13T02:44:04;7.60;99.90
63802;DHT22;49949;43.060;25.624;2023-10-13T02:46:45;7.60;99.90
63802;DHT22;49949;43.060;25.624;2023-10-13T02:49:16;7.60;99.90
63802;DHT22;49949;43.060;25.624;2023-10-13T02:51:45;7.50;99.90
63802;DHT22;49949;43.060;25.624;2023-10-13T02:54:11;7.50;99.90
63802;DHT22;49949;43.060;25.624;2023-10-13T02:56:38;7.60;99.90
63802;DHT22;49949;43.060;25.624;2023-10-13T02:59:15;7.60;99.90
63802;DHT22;49949;43.060;25.624;2023-10-13T03:01:41;7.60;99.90
63802;DHT22;49949;43.060;25.624;2023-10-13T03:04:07;7.50;99.90
63802;DHT22;49949;43.060;25.624;2023-10-13T03:06:38;7.40;99.90
63802;DHT22;49949;43.060;25.624;2023-10-13T03:09:09;7.40;99.90
63802;DHT22;49949;43.060;25.624;2023-10-13T03:11:45;7.40;99.90
63802;DHT22;49949;43.060;25.624;2023-10-13T03:14:24;7.50;99.90
63802;DHT22;49949;43.060;25.624;2023-10-13T03:16:56;7.50;99.90
63802;DHT22;49949;43.060;25.624;2023-10-13T03:19:28;7.50;99.90
63802;DHT22;49949;43.060;25.624;2023-10-13T03:22:09;7.50;99.90
63802;DHT22;49949;43.060;25.624;2023-10-13T03:24:40;7.40;99.90
63802;DHT22;49949;43.060;25.624;2023-10-13T03:27:18;7.40;99.90
63802;DHT22;49949;43.060;25.624;2023-10-13T03:30:05;7.40;99.90
63802;DHT22;49949;43.060;25.624;2023-10-13T03:32:39;7.40;99.90
63802;DHT22;49949;43.060;25.624;2023-10-13T03:35:09;7.40;99.90
63802;DHT22;49949;43.060;25.624;2023-10-13T03:37:50;7.40;99.90
63802;DHT22;49949;43.060;25.624;2023-10-13T03:40:16;7.30;99.90
63802;DHT22;49949;43.060;25.624;2023-10-13T03:42:54;7.30;99.90
63802;DHT22;49949;43.060;25.624;2023-10-13T03:45:35;7.30;99.90
63802;DHT22;49949;43.060;25.624;2023-10-13T03:48:16;7.20;99.90
63802;DHT22;49949;43.060;25.624;2023-10-13T03:50:56;7.20;99.90
63802;DHT22;49949;43.060;25.624;2023-10-13T03:53:41;7.20;99.90
63802;DHT22;49949;43.060;25.624;2023-10-13T03:56:23;7.10;99.90
63802;DHT22;49949;43.060;25.624;2023-10-13T03:58:56;7.10;99.90
63802;DHT22;49949;43.060;25.624;2023-10-13T04:01:25;7.00;99.90
63802;DHT22;49949;43.060;25.624;2023-10-13T04:04:00;7.10;99.90
63802;DHT22;49949;43.060;25.624;2023-10-13T04:06:32;7.10;99.90
63802;DHT22;49949;43.060;25.624;2023-10-13T04:09:20;7.00;99.90
63802;DHT22;49949;43.060;25.624;2023-10-13T04:12:07;7.00;99.90
63802;DHT22;49949;43.060;25.624;2023-10-13T04:14:43;7.00;99.90
63802;DHT22;49949;43.060;25.624;2023-10-13T04:17:38;7.00;99.90
63802;DHT22;49949;43.060;25.624;2023-10-13T04:20:09;7.00;99.90
63802;DHT22;49949;43.060;25.624;2023-10-13T04:22:42;7.00;99.90
63802;DHT22;49949;43.060;25.624;2023-10-13T04:25:16;7.00;99.90
63802;DHT22;49949;43.060;25.624;2023-10-13T04:27:53;7.00;99.90
63802;DHT22;49949;43.060;25.624;2023-10-13T04:30:40;7.00;99.90
63802;DHT22;49949;43.060;25.624;2023-10-13T04:33:22;7.00;99.90
63802;DHT22;49949;43.060;25.624;2023-10-13T04:36:04;7.00;99.90
63802;DHT22;49949;43.060;25.624;2023-10-13T04:38:40;7.00;99.90
63802;DHT22;49949;43.060;25.624;2023-10-13T04:41:45;7.00;99.90
63802;DHT22;49949;43.060;25.624;2023-10-13T04:44:18;7.00;99.90
63802;DHT22;49949;43.060;25.624;2023-10-13T04:47:02;7.00;99.90
63802;DHT22;49949;43.060;25.624;2023-10-13T04:49:30;6.90;99.90
63802;DHT22;49949;43.060;25.624;2023-10-13T04:52:05;6.90;99.90
63802;DHT22;49949;43.060;25.624;2023-10-13T04:54:36;6.90;99.90
63802;DHT22;49949;43.060;25.624;2023-10-13T04:57:20;6.90;99.90
63802;DHT22;49949;43.060;25.624;2023-10-13T04:59:56;6.90;99.90
63802;DHT22;49949;43.060;25.624;2023-10-13T05:02:41;7.00;99.90
63802;DHT22;49949;43.060;25.624;2023-10-13T05:05:15;6.90;99.90
63802;DHT22;49949;43.060;25.624;2023-10-13T05:07:45;7.00;99.90
63802;DHT22;49949;43.060;25.624;2023-10-13T05:10:30;7.00;99.90
63802;DHT22;49949;43.060;25.624;2023-10-13T05:13:14;7.10;99.90
63802;DHT22;49949;43.060;25.624;2023-10-13T05:15:59;7.10;99.90
63802;DHT22;49949;43.060;25.624;2023-10-13T05:18:43;7.10;99.90
63802;DHT22;49949;43.060;25.624;2023-10-13T05:21:28;7.20;99.90
63802;DHT22;49949;43.060;25.624;2023-10-13T05:24:12;7.30;99.90
63802;DHT22;49949;43.060;25.624;2023-10-13T05:26:56;7.30;99.90
63802;DHT22;49949;43.060;25.624;2023-10-13T05:29:44;7.40;99.90
63802;DHT22;49949;43.060;25.624;2023-10-13T05:32:29;7.50;99.90
63802;DHT22;49949;43.060;25.624;2023-10-13T05:35:14;7.60;99.90
63802;DHT22;49949;43.060;25.624;2023-10-13T05:37:58;7.70;99.90
63802;DHT22;49949;43.060;25.624;2023-10-13T05:43:36;7.80;99.90
63802;DHT22;49949;43.060;25.624;2023-10-13T05:46:37;8.00;99.90
63802;DHT22;49949;43.060;25.624;2023-10-13T05:49:07;8.10;99.90
63802;DHT22;49949;43.060;25.624;2023-10-13T05:51:42;8.20;99.90
63802;DHT22;49949;43.060;25.624;2023-10-13T05:54:11;8.20;99.90
63802;DHT22;49949;43.060;25.624;2023-10-13T05:56:50;8.30;99.90
63802;DHT22;49949;43.060;25.624;2023-10-13T05:59:37;8.40;99.90
63802;DHT22;49949;43.060;25.624;2023-10-13T06:02:22;8.60;99.90
63802;DHT22;49949;43.060;25.624;2023-10-13T06:05:10;8.70;99.90
63802;DHT22;49949;43.060;25.624;2023-10-13T06:07:55;8.80;99.90
63802;DHT22;49949;43.060;25.624;2023-10-13T06:10:40;8.90;99.90
63802;DHT22;49949;43.060;25.624;2023-10-13T06:13:25;9.00;99.90
63802;DHT22;49949;43.060;25.624;2023-10-13T06:16:13;9.20;99.90
63802;DHT22;49949;43.060;25.624;2023-10-13T06:18:59;9.30;99.90
63802;DHT22;49949;43.060;25.624;2023-10-13T06:21:44;9.40;99.90
63802;DHT22;49949;43.060;25.624;2023-10-13T06:24:29;9.60;99.90
63802;DHT22;49949;43.060;25.624;2023-10-13T06:27:14;9.70;99.90
63802;DHT22;49949;43.060;25.624;2023-10-13T06:29:59;9.90;99.90
63802;DHT22;49949;43.060;25.624;2023-10-13T06:32:26;10.10;99.90
63802;DHT22;49949;43.060;25.624;2023-10-13T06:34:55;10.30;99.90
63802;DHT22;49949;43.060;25.624;2023-10-13T06:37:30;10.40;99.90
63802;DHT22;49949;43.060;25.624;2023-10-13T06:39:57;10.70;99.90
63802;DHT22;49949;43.060;25.624;2023-10-13T06:42:24;10.80;99.90
63802;DHT22;49949;43.060;25.624;2023-10-13T06:44:53;11.00;99.90
63802;DHT22;49949;43.060;25.624;2023-10-13T06:47:21;11.20;99.90
63802;DHT22;49949;43.060;25.624;2023-10-13T06:49:47;11.30;99.90
63802;DHT22;49949;43.060;25.624;2023-10-13T06:52:19;11.60;99.90
63802;DHT22;49949;43.060;25.624;2023-10-13T06:54:50;11.80;99.90
63802;DHT22;49949;43.060;25.624;2023-10-13T06:57:15;12.10;99.90
63802;DHT22;49949;43.060;25.624;2023-10-13T06:59:49;12.30;99.90
63802;DHT22;49949;43.060;25.624;2023-10-13T07:02:15;12.50;99.90
63802;DHT22;49949;43.060;25.624;2023-10-13T07:04:50;12.80;99.90
63802;DHT22;49949;43.060;25.624;2023-10-13T07:07:22;12.80;99.90
63802;DHT22;49949;43.060;25.624;2023-10-13T07:09:49;13.00;99.90
63802;DHT22;49949;43.060;25.624;2023-10-13T07:12:21;13.20;99.90
63802;DHT22;49949;43.060;25.624;2023-10-13T07:14:52;13.50;99.90
63802;DHT22;49949;43.060;25.624;2023-10-13T07:17:19;13.70;99.90
63802;DHT22;49949;43.060;25.624;2023-10-13T07:19:55;13.90;99.90
63802;DHT22;49949;43.060;25.624;2023-10-13T07:22:39;14.20;99.90
63802;DHT22;49949;43.060;25.624;2023-10-13T07:25:06;14.40;99.90
63802;DHT22;49949;43.060;25.624;2023-10-13T07:27:35;14.50;99.90
63802;DHT22;49949;43.060;25.624;2023-10-13T07:30:01;14.80;99.90
63802;DHT22;49949;43.060;25.624;2023-10-13T07:32:43;15.20;99.90
63802;DHT22;49949;43.060;25.624;2023-10-13T07:35:16;15.50;99.90
63802;DHT22;49949;43.060;25.624;2023-10-13T07:37:46;15.80;99.90
63802;DHT22;49949;43.060;25.624;2023-10-13T07:40:14;16.00;99.90
63802;DHT22;49949;43.060;25.624;2023-10-13T07:42:53;16.30;99.90
63802;DHT22;49949;43.060;25.624;2023-10-13T07:45:29;16.70;99.90
63802;DHT22;49949;43.060;25.624;2023-10-13T07:48:07;17.00;99.90
63802;DHT22;49949;43.060;25.624;2023-10-13T07:51:02;17.20;99.90
63802;DHT22;49949;43.060;25.624;2023-10-13T07:53:31;17.50;99.90
63802;DHT22;49949;43.060;25.624;2023-10-13T07:56:01;17.70;99.90
63802;DHT22;49949;43.060;25.624;2023-10-13T07:58:33;18.00;99.90
63802;DHT22;49949;43.060;25.624;2023-10-13T08:01:00;18.20;99.90
63802;DHT22;49949;43.060;25.624;2023-10-13T08:03:41;18.40;99.90
63802;DHT22;49949;43.060;25.624;2023-10-13T08:06:17;18.60;99.90
63802;DHT22;49949;43.060;25.624;2023-10-13T08:08:43;18.80;99.90
63802;DHT22;49949;43.060;25.624;2023-10-13T08:11:10;19.00;99.90
63802;DHT22;49949;43.060;25.624;2023-10-13T08:13:48;19.20;99.70
63802;DHT22;49949;43.060;25.624;2023-10-13T08:16:20;19.40;99.00
63802;DHT22;49949;43.060;25.624;2023-10-13T08:18:52;19.50;98.30
63802;DHT22;49949;43.060;25.624;2023-10-13T08:21:19;19.90;97.40
63802;DHT22;49949;43.060;25.624;2023-10-13T08:23:57;20.10;96.70
63802;DHT22;49949;43.060;25.624;2023-10-13T08:26:27;20.30;96.30
63802;DHT22;49949;43.060;25.624;2023-10-13T08:29:05;20.50;96.00
63802;DHT22;49949;43.060;25.624;2023-10-13T08:32:03;20.80;93.50
63802;DHT22;49949;43.060;25.624;2023-10-13T08:34:32;21.00;93.00
63802;DHT22;49949;43.060;25.624;2023-10-13T08:37:29;21.20;91.70
63802;DHT22;49949;43.060;25.624;2023-10-13T08:39:59;21.40;89.70
63802;DHT22;49949;43.060;25.624;2023-10-13T08:42:36;21.50;90.80
63802;DHT22;49949;43.060;25.624;2023-10-13T08:45:15;21.80;91.20
63802;DHT22;49949;43.060;25.624;2023-10-13T08:47:50;22.10;89.00
63802;DHT22;49949;43.060;25.624;2023-10-13T08:50:22;22.30;88.30
63802;DHT22;49949;43.060;25.624;2023-10-13T08:56:08;22.60;84.80
63802;DHT22;49949;43.060;25.624;2023-10-13T08:58:44;22.80;83.60
63802;DHT22;49949;43.060;25.624;2023-10-13T09:01:19;23.10;83.20
63802;DHT22;49949;43.060;25.624;2023-10-13T09:04:08;23.20;80.90
63802;DHT22;49949;43.060;25.624;2023-10-13T09:06:56;23.50;81.00
63802;DHT22;49949;43.060;25.624;2023-10-13T09:09:25;23.70;78.40
63802;DHT22;49949;43.060;25.624;2023-10-13T09:12:13;23.80;77.30
63802;DHT22;49949;43.060;25.624;2023-10-13T09:14:41;24.10;76.70
63802;DHT22;49949;43.060;25.624;2023-10-13T09:17:11;24.30;78.80
63802;DHT22;49949;43.060;25.624;2023-10-13T09:19:52;24.40;76.90
63802;DHT22;49949;43.060;25.624;2023-10-13T09:22:28;24.50;76.90
63802;DHT22;49949;43.060;25.624;2023-10-13T09:25:04;24.60;75.30
63802;DHT22;49949;43.060;25.624;2023-10-13T09:27:38;24.80;72.00
63802;DHT22;49949;43.060;25.624;2023-10-13T09:30:05;24.50;71.50
63802;DHT22;49949;43.060;25.624;2023-10-13T09:33:02;24.40;72.70
63802;DHT22;49949;43.060;25.624;2023-10-13T09:35:30;24.50;72.60
63802;DHT22;49949;43.060;25.624;2023-10-13T09:38:00;24.70;72.70
63802;DHT22;49949;43.060;25.624;2023-10-13T09:40:28;24.90;70.60
63802;DHT22;49949;43.060;25.624;2023-10-13T09:43:04;25.10;69.50
63802;DHT22;49949;43.060;25.624;2023-10-13T09:45:34;25.40;70.50
63802;DHT22;49949;43.060;25.624;2023-10-13T09:48:37;25.40;69.70
63802;DHT22;49949;43.060;25.624;2023-10-13T09:51:12;25.30;70.60
63802;DHT22;49949;43.060;25.624;2023-10-13T09:53:40;25.30;68.30
63802;DHT22;49949;43.060;25.624;2023-10-13T09:56:12;25.30;69.60
63802;DHT22;49949;43.060;25.624;2023-10-13T09:58:50;25.40;71.00
63802;DHT22;49949;43.060;25.624;2023-10-13T10:01:24;25.50;69.10
63802;DHT22;49949;43.060;25.624;2023-10-13T10:04:10;25.60;66.80
63802;DHT22;49949;43.060;25.624;2023-10-13T10:06:52;25.60;68.70
63802;DHT22;49949;43.060;25.624;2023-10-13T10:09:18;25.80;68.10
63802;DHT22;49949;43.060;25.624;2023-10-13T10:17:13;26.00;66.20
63802;DHT22;49949;43.060;25.624;2023-10-13T10:19:52;25.90;65.50
63802;DHT22;49949;43.060;25.624;2023-10-13T10:22:32;25.80;64.70
63802;DHT22;49949;43.060;25.624;2023-10-13T10:25:02;25.90;65.10
63802;DHT22;49949;43.060;25.624;2023-10-13T10:27:32;26.00;66.80
63802;DHT22;49949;43.060;25.624;2023-10-13T10:29:58;26.20;65.60
63802;DHT22;49949;43.060;25.624;2023-10-13T10:35:06;26.20;65.30
63802;DHT22;49949;43.060;25.624;2023-10-13T10:37:46;26.10;59.30
63802;DHT22;49949;43.060;25.624;2023-10-13T10:40:14;26.00;59.70
63802;DHT22;49949;43.060;25.624;2023-10-13T10:42:57;25.90;60.10
63802;DHT22;49949;43.060;25.624;2023-10-13T10:45:27;25.80;61.80
63802;DHT22;49949;43.060;25.624;2023-10-13T10:47:58;25.70;63.00
63802;DHT22;49949;43.060;25.624;2023-10-13T10:50:26;25.60;62.20
63802;DHT22;49949;43.060;25.624;2023-10-13T10:53:05;25.70;62.70
63802;DHT22;49949;43.060;25.624;2023-10-13T10:55:37;25.70;61.70
63802;DHT22;49949;43.060;25.624;2023-10-13T10:58:04;25.70;63.40
63802;DHT22;49949;43.060;25.624;2023-10-13T11:00:32;25.70;63.40
63802;DHT22;49949;43.060;25.624;2023-10-13T11:03:12;25.70;63.00
63802;DHT22;49949;43.060;25.624;2023-10-13T11:05:45;25.70;63.20
63802;DHT22;49949;43.060;25.624;2023-10-13T11:08:24;25.60;64.60
63802;DHT22;49949;43.060;25.624;2023-10-13T11:10:53;25.70;65.10
63802;DHT22;49949;43.060;25.624;2023-10-13T11:13:19;25.70;64.40
63802;DHT22;49949;43.060;25.624;2023-10-13T11:15:48;25.80;61.30
63802;DHT22;49949;43.060;25.624;2023-10-13T11:18:16;25.90;61.60
63802;DHT22;49949;43.060;25.624;2023-10-13T11:20:55;25.90;61.50
63802;DHT22;49949;43.060;25.624;2023-10-13T11:23:21;25.80;60.40
63802;DHT22;49949;43.060;25.624;2023-10-13T11:26:00;25.70;59.80
63802;DHT22;49949;43.060;25.624;2023-10-13T11:28:25;25.80;62.50
63802;DHT22;49949;43.060;25.624;2023-10-13T11:30:55;25.90;60.70
63802;DHT22;49949;43.060;25.624;2023-10-13T11:33:53;25.90;60.60
63802;DHT22;49949;43.060;25.624;2023-10-13T11:36:21;25.90;60.90
63802;DHT22;49949;43.060;25.624;2023-10-13T11:38:58;25.70;60.60
63802;DHT22;49949;43.060;25.624;2023-10-13T11:41:24;25.80;61.50
63802;DHT22;49949;43.060;25.624;2023-10-13T11:43:57;25.80;61.50
63802;DHT22;49949;43.060;25.624;2023-10-13T11:46:32;25.90;60.00
63802;DHT22;49949;43.060;25.624;2023-10-13T11:49:04;25.90;59.60
63802;DHT22;49949;43.060;25.624;2023-10-13T11:51:42;25.90;60.60
63802;DHT22;49949;43.060;25.624;2023-10-13T11:54:17;25.90;59.80
63802;DHT22;49949;43.060;25.624;2023-10-13T11:56:46;25.90;60.60
63802;DHT22;49949;43.060;25.624;2023-10-13T11:59:12;25.90;61.60
63802;DHT22;49949;43.060;25.624;2023-10-13T12:01:49;26.00;61.40
63802;DHT22;49949;43.060;25.624;2023-10-13T12:04:30;26.00;61.60
63802;DHT22;49949;43.060;25.624;2023-10-13T12:06:58;26.00;61.50
63802;DHT22;49949;43.060;25.624;2023-10-13T12:09:40;25.90;59.80
63802;DHT22;49949;43.060;25.624;2023-10-13T12:12:21;25.80;60.60
63802;DHT22;49949;43.060;25.624;2023-10-13T12:14:47;25.80;61.20
63802;DHT22;49949;43.060;25.624;2023-10-13T12:17:28;25.70;60.60
63802;DHT22;49949;43.060;25.624;2023-10-13T12:20:06;25.70;60.90
63802;DHT22;49949;43.060;25.624;2023-10-13T12:22:36;25.60;61.50
63802;DHT22;49949;43.060;25.624;2023-10-13T12:25:05;25.60;60.70
63802;DHT22;49949;43.060;25.624;2023-10-13T12:27:47;25.50;61.10
63802;DHT22;49949;43.060;25.624;2023-10-13T12:30:15;25.50;61.60
63802;DHT22;49949;43.060;25.624;2023-10-13T12:32:49;25.60;60.90
63802;DHT22;49949;43.060;25.624;2023-10-13T12:35:41;25.70;61.50
63802;DHT22;49949;43.060;25.624;2023-10-13T12:38:42;25.80;61.60
63802;DHT22;49949;43.060;25.624;2023-10-13T12:41:20;26.00;61.30
63802;DHT22;49949;43.060;25.624;2023-10-13T12:44:05;25.90;60.40
63802;DHT22;49949;43.060;25.624;2023-10-13T12:46:50;26.00;59.80
63802;DHT22;49949;43.060;25.624;2023-10-13T12:49:35;26.00;60.00
63802;DHT22;49949;43.060;25.624;2023-10-13T12:52:13;25.90;59.60
63802;DHT22;49949;43.060;25.624;2023-10-13T12:54:46;25.80;59.60
63802;DHT22;49949;43.060;25.624;2023-10-13T12:57:33;25.80;60.00
63802;DHT22;49949;43.060;25.624;2023-10-13T12:59:59;25.90;61.30
63802;DHT22;49949;43.060;25.624;2023-10-13T13:02:26;25.90;60.70
63802;DHT22;49949;43.060;25.624;2023-10-13T13:04:52;26.00;61.30
63802;DHT22;49949;43.060;25.624;2023-10-13T13:07:31;26.00;61.40
63802;DHT22;49949;43.060;25.624;2023-10-13T13:10:09;26.00;60.70
63802;DHT22;49949;43.060;25.624;2023-10-13T13:12:36;26.00;60.30
63802;DHT22;49949;43.060;25.624;2023-10-13T13:15:03;25.90;58.80
63802;DHT22;49949;43.060;25.624;2023-10-13T13:17:37;25.90;60.50
63802;DHT22;49949;43.060;25.624;2023-10-13T13:20:05;25.80;58.10
63802;DHT22;49949;43.060;25.624;2023-10-13T13:22:38;25.70;58.30
63802;DHT22;49949;43.060;25.624;2023-10-13T13:25:04;25.80;58.10
63802;DHT22;49949;43.060;25.624;2023-10-13T13:27:34;25.70;58.00
63802;DHT22;49949;43.060;25.624;2023-10-13T13:30:00;25.70;59.10
63802;DHT22;49949;43.060;25.624;2023-10-13T13:32:26;25.80;58.70
63802;DHT22;49949;43.060;25.624;2023-10-13T13:34:54;25.80;58.30
63802;DHT22;49949;43.060;25.624;2023-10-13T13:37:24;25.80;58.50
63802;DHT22;49949;43.060;25.624;2023-10-13T13:39:52;25.70;58.80
63802;DHT22;49949;43.060;25.624;2023-10-13T13:42:18;25.70;58.20
63802;DHT22;49949;43.060;25.624;2023-10-13T13:44:45;25.80;59.10
63802;DHT22;49949;43.060;25.624;2023-10-13T13:47:14;25.90;61.10
63802;DHT22;49949;43.060;25.624;2023-10-13T13:49:41;25.90;63.70
63802;DHT22;49949;43.060;25.624;2023-10-13T13:52:12;25.70;64.80
63802;DHT22;49949;43.060;25.624;2023-10-13T13:54:43;25.60;64.50
63802;DHT22;49949;43.060;25.624;2023-10-13T13:57:09;25.50;65.80
63802;DHT22;49949;43.060;25.624;2023-10-13T13:59:35;25.40;67.30
63802;DHT22;49949;43.060;25.624;2023-10-13T14:02:02;25.30;69.60
63802;DHT22;49949;43.060;25.624;2023-10-13T14:04:48;25.10;70.90
63802;DHT22;49949;43.060;25.624;2023-10-13T14:07:20;25.00;70.60
63802;DHT22;49949;43.060;25.624;2023-10-13T14:09:49;24.90;71.30
63802;DHT22;49949;43.060;25.624;2023-10-13T14:12:18;24.80;71.80
63802;DHT22;49949;43.060;25.624;2023-10-13T14:15:08;24.70;73.10
63802;DHT22;49949;43.060;25.624;2023-10-13T14:17:48;24.50;74.00
63802;DHT22;49949;43.060;25.624;2023-10-13T14:20:15;24.30;74.00
63802;DHT22;49949;43.060;25.624;2023-10-13T14:22:46;24.30;73.90
63802;DHT22;49949;43.060;25.624;2023-10-13T14:25:15;24.20;73.50
63802;DHT22;49949;43.060;25.624;2023-10-13T14:27:44;24.30;71.30
63802;DHT22;49949;43.060;25.624;2023-10-13T14:30:10;24.20;73.00
63802;DHT22;49949;43.060;25.624;2023-10-13T14:32:35;24.20;72.50
63802;DHT22;49949;43.060;25.624;2023-10-13T14:35:06;24.10;73.90
63802;DHT22;49949;43.060;25.624;2023-10-13T14:37:40;23.90;74.30
63802;DHT22;49949;43.060;25.624;2023-10-13T14:40:07;23.70;74.50
63802;DHT22;49949;43.060;25.624;2023-10-13T14:42:38;23.60;72.70
63802;DHT22;49949;43.060;25.624;2023-10-13T14:45:07;23.50;71.80
63802;DHT22;49949;43.060;25.624;2023-10-13T14:47:39;23.40;73.70
63802;DHT22;49949;43.060;25.624;2023-10-13T14:50:05;23.40;76.70
63802;DHT22;49949;43.060;25.624;2023-10-13T14:52:31;23.30;77.30
63802;DHT22;49949;43.060;25.624;2023-10-13T14:54:57;23.20;78.30
63802;DHT22;49949;43.060;25.624;2023-10-13T14:57:23;23.00;78.20
63802;DHT22;49949;43.060;25.624;2023-10-13T14:59:55;22.90;80.20
63802;DHT22;49949;43.060;25.624;2023-10-13T15:02:23;22.80;80.80
63802;DHT22;49949;43.060;25.624;2023-10-13T15:04:49;22.70;81.30
63802;DHT22;49949;43.060;25.624;2023-10-13T15:07:15;22.60;81.10
63802;DHT22;49949;43.060;25.624;2023-10-13T15:09:43;22.40;80.60
63802;DHT22;49949;43.060;25.624;2023-10-13T15:12:11;22.30;80.60
63802;DHT22;49949;43.060;25.624;2023-10-13T15:14:38;22.20;80.60
63802;DHT22;49949;43.060;25.624;2023-10-13T15:17:05;22.10;85.10
63802;DHT22;49949;43.060;25.624;2023-10-13T15:19:32;21.90;86.60
63802;DHT22;49949;43.060;25.624;2023-10-13T15:22:04;21.80;87.00
63802;DHT22;49949;43.060;25.624;2023-10-13T15:24:33;21.60;88.70
63802;DHT22;49949;43.060;25.624;2023-10-13T15:27:01;21.50;85.90
63802;DHT22;49949;43.060;25.624;2023-10-13T15:29:27;21.40;84.40
63802;DHT22;49949;43.060;25.624;2023-10-13T15:32:01;21.30;85.20
63802;DHT22;49949;43.060;25.624;2023-10-13T15:34:30;21.20;86.20
63802;DHT22;49949;43.060;25.624;2023-10-13T15:36:56;21.10;86.00
63802;DHT22;49949;43.060;25.624;2023-10-13T15:39:23;21.10;86.70
63802;DHT22;49949;43.060;25.624;2023-10-13T15:41:56;21.00;89.50
63802;DHT22;49949;43.060;25.624;2023-10-13T15:44:28;20.80;91.60
63802;DHT22;49949;43.060;25.624;2023-10-13T15:46:57;20.70;92.50
63802;DHT22;49949;43.060;25.624;2023-10-13T15:49:24;20.60;93.00
63802;DHT22;49949;43.060;25.624;2023-10-13T15:51:49;20.60;93.20
63802;DHT22;49949;43.060;25.624;2023-10-13T15:54:18;20.50;94.00
63802;DHT22;49949;43.060;25.624;2023-10-13T15:56:47;20.40;92.90
63802;DHT22;49949;43.060;25.624;2023-10-13T15:59:14;20.40;89.50
63802;DHT22;49949;43.060;25.624;2023-10-13T16:01:40;20.40;88.30
63802;DHT22;49949;43.060;25.624;2023-10-13T16:04:07;20.50;86.30
63802;DHT22;49949;43.060;25.624;2023-10-13T16:06:45;20.60;85.10
63802;DHT22;49949;43.060;25.624;2023-10-13T16:09:16;20.60;88.10
63802;DHT22;49949;43.060;25.624;2023-10-13T16:11:49;20.60;88.10
63802;DHT22;49949;43.060;25.624;2023-10-13T16:14:14;20.50;91.70
63802;DHT22;49949;43.060;25.624;2023-10-13T16:16:47;20.30;93.10
63802;DHT22;49949;43.060;25.624;2023-10-13T16:19:18;20.20;94.60